Terminal Aerodrome Forecast
Issued by NWS Cleveland, OH

Home | Current Version | Previous Version | Text Only | Print | Product List | Glossary Off
Versions: 1 2 3 4 5 6 7 8 9 10 11 12 13 14 15 16 17

042
FTUS41 KCLE 141747
TAFMFD
TAF
KMFD 141747Z 1418/1518 31007KT P6SM OVC250
     FM150300 26004KT P6SM OVC250
     FM151300 20007KT P6SM OVC050
     FM151700 22010KT 6SM -SN OVC030=

USA.gov is the U.S. government's official web portal to all federal, state and local government web resources and services.